createdAt,value
2022-10-18T00:00:56.813Z,11.30
2022-10-18T00:03:38.019Z,9.70
2022-10-18T00:06:09.292Z,7.00
2022-10-18T00:08:39.223Z,6.70
2022-10-18T00:11:08.242Z,6.50
2022-10-18T00:13:36.936Z,7.00
2022-10-18T00:16:13.591Z,7.30
2022-10-18T00:18:42.854Z,6.60
2022-10-18T00:21:15.588Z,6.40
2022-10-18T00:23:45.498Z,6.80
2022-10-18T00:26:14.447Z,6.70
2022-10-18T00:28:43.458Z,6.60
2022-10-18T00:31:17.478Z,7.00
2022-10-18T00:33:50.875Z,6.00
2022-10-18T00:36:19.469Z,6.10
2022-10-18T00:38:48.948Z,5.70
2022-10-18T00:41:25.072Z,5.10
2022-10-18T00:44:03.779Z,5.50
2022-10-18T00:46:38.082Z,5.20
2022-10-18T00:49:16.902Z,4.80
2022-10-18T00:52:03.603Z,4.90
2022-10-18T00:54:37.013Z,5.50
2022-10-18T00:57:06.424Z,4.60
2022-10-18T00:59:36.294Z,4.70
2022-10-18T01:02:05.754Z,4.70
2022-10-18T01:04:34.730Z,4.30
2022-10-18T01:07:33.928Z,4.60
2022-10-18T01:10:18.730Z,4.60
2022-10-18T01:13:04.839Z,4.30
2022-10-18T01:16:19.127Z,4.30
2022-10-18T01:19:06.288Z,5.00
2022-10-18T01:22:02.515Z,4.40
2022-10-18T01:24:39.193Z,3.70
2022-10-18T01:27:32.534Z,4.10
2022-10-18T01:30:39.202Z,4.40
2022-10-18T01:33:26.808Z,4.80
2022-10-18T01:36:42.749Z,5.00
2022-10-18T01:39:36.468Z,4.10
2022-10-18T01:42:09.951Z,4.10
2022-10-18T01:44:41.221Z,4.10
2022-10-18T01:47:13.404Z,4.50
2022-10-18T01:49:41.408Z,4.20
2022-10-18T01:52:14.313Z,4.10
2022-10-18T01:54:51.248Z,4.10
2022-10-18T01:57:46.377Z,3.90
2022-10-18T02:00:37.075Z,3.90
2022-10-18T02:03:21.337Z,3.60
2022-10-18T02:06:02.491Z,3.60
2022-10-18T02:08:51.040Z,3.80
2022-10-18T02:11:19.177Z,3.40
2022-10-18T02:14:06.202Z,3.20
2022-10-18T02:16:52.170Z,3.70
2022-10-18T02:19:30.946Z,4.20
2022-10-18T02:22:00.136Z,3.50
2022-10-18T02:24:37.904Z,3.90
2022-10-18T02:27:06.260Z,3.90
2022-10-18T02:29:35.105Z,3.80
2022-10-18T02:32:19.750Z,4.60
2022-10-18T02:35:52.489Z,4.20
2022-10-18T02:38:23.880Z,3.70
2022-10-18T02:40:52.212Z,3.80
2022-10-18T02:43:20.058Z,4.00
2022-10-18T02:45:47.943Z,3.80
2022-10-18T02:48:15.855Z,3.40
2022-10-18T02:50:43.689Z,3.10
2022-10-18T02:53:11.512Z,4.20
2022-10-18T02:55:39.329Z,3.50
2022-10-18T02:58:07.184Z,3.10
2022-10-18T03:00:35.000Z,3.80
2022-10-18T03:03:02.882Z,3.80
2022-10-18T03:05:30.719Z,3.50
2022-10-18T03:07:58.541Z,3.70
2022-10-18T03:10:26.405Z,3.40
2022-10-18T03:12:54.583Z,3.10
2022-10-18T03:15:22.412Z,3.60
2022-10-18T03:17:50.260Z,3.30
2022-10-18T03:20:18.135Z,3.20
2022-10-18T03:22:45.930Z,3.40
2022-10-18T03:25:13.922Z,3.40
2022-10-18T03:27:41.802Z,3.20
2022-10-18T03:30:11.808Z,3.20
2022-10-18T03:32:41.023Z,3.60
2022-10-18T03:35:09.695Z,3.00
2022-10-18T03:37:38.515Z,2.60
2022-10-18T03:40:07.671Z,3.10
2022-10-18T03:42:35.558Z,3.30
2022-10-18T03:45:04.487Z,3.00
2022-10-18T03:47:32.295Z,2.90
2022-10-18T03:50:00.165Z,2.70
2022-10-18T03:52:28.274Z,2.80
2022-10-18T03:54:56.189Z,2.80
2022-10-18T03:57:24.049Z,2.60
2022-10-18T03:59:51.906Z,2.90
2022-10-18T04:02:19.725Z,2.90
2022-10-18T04:04:47.575Z,2.80
2022-10-18T04:07:15.945Z,2.90
2022-10-18T04:09:43.942Z,3.60
2022-10-18T04:12:11.833Z,3.00
2022-10-18T04:14:39.676Z,2.70
2022-10-18T04:17:07.700Z,3.10
2022-10-18T04:19:35.663Z,3.20
2022-10-18T04:22:03.640Z,2.70
2022-10-18T04:24:31.458Z,2.60
2022-10-18T04:26:59.356Z,2.70
2022-10-18T04:29:27.169Z,2.60
2022-10-18T04:31:54.998Z,2.90
2022-10-18T04:34:23.205Z,3.20
2022-10-18T04:36:51.099Z,3.50
2022-10-18T04:39:18.943Z,2.80
2022-10-18T04:41:46.741Z,3.30
2022-10-18T04:44:14.586Z,3.40
2022-10-18T04:46:42.427Z,3.00
2022-10-18T04:49:10.276Z,3.00
2022-10-18T04:51:38.202Z,2.60
2022-10-18T04:54:06.751Z,2.70
2022-10-18T04:56:34.935Z,2.90
2022-10-18T04:59:02.778Z,3.00
2022-10-18T05:01:30.677Z,3.00
2022-10-18T05:03:58.537Z,3.00
2022-10-18T05:06:26.343Z,3.20
2022-10-18T05:08:54.157Z,3.00
2022-10-18T05:11:21.989Z,3.00
2022-10-18T05:13:50.939Z,3.20
2022-10-18T05:16:19.061Z,3.00
2022-10-18T05:18:46.917Z,3.00
2022-10-18T05:21:14.872Z,3.10
2022-10-18T05:23:42.714Z,2.60
2022-10-18T05:26:10.612Z,2.70
2022-10-18T05:28:40.207Z,2.70
2022-10-18T05:31:11.868Z,3.20
2022-10-18T05:33:40.352Z,5.60
2022-10-18T05:36:08.815Z,2.90
2022-10-18T05:38:45.398Z,2.90
2022-10-18T05:41:14.033Z,3.30
2022-10-18T05:43:41.887Z,2.80
2022-10-18T05:46:15.084Z,3.10
2022-10-18T05:48:49.131Z,3.10
2022-10-18T05:51:18.765Z,3.00
2022-10-18T05:53:46.719Z,3.20
2022-10-18T05:56:14.958Z,3.40
2022-10-18T05:58:43.370Z,2.60
2022-10-18T06:01:11.289Z,2.90
2022-10-18T06:03:39.248Z,3.20
2022-10-18T06:06:10.700Z,2.80
2022-10-18T06:08:40.910Z,3.00
2022-10-18T06:11:15.727Z,3.00
2022-10-18T06:13:49.783Z,3.10
2022-10-18T06:16:21.899Z,3.50
2022-10-18T06:18:52.803Z,3.30
2022-10-18T06:21:22.333Z,3.40
2022-10-18T06:23:56.263Z,3.20
2022-10-18T06:26:25.969Z,3.50
2022-10-18T06:28:53.898Z,2.90
2022-10-18T06:31:21.904Z,3.10
2022-10-18T06:33:49.996Z,3.50
2022-10-18T06:36:24.051Z,3.30
2022-10-18T06:38:52.629Z,3.30
2022-10-18T06:41:20.791Z,3.20
2022-10-18T06:43:57.566Z,3.10
2022-10-18T06:46:26.072Z,3.30
2022-10-18T06:48:54.130Z,3.10
2022-10-18T06:51:21.986Z,3.30
2022-10-18T06:53:59.637Z,3.60
2022-10-18T06:56:38.273Z,3.80
2022-10-18T06:59:06.319Z,3.20
2022-10-18T07:01:34.759Z,3.60
2022-10-18T07:04:02.839Z,3.50
2022-10-18T07:06:30.773Z,3.30
2022-10-18T07:08:58.689Z,3.30
2022-10-18T07:11:27.412Z,3.90
2022-10-18T07:14:04.969Z,3.60
2022-10-18T07:16:34.060Z,4.30
2022-10-18T07:19:02.216Z,3.70
2022-10-18T07:21:30.569Z,3.60
2022-10-18T07:23:58.565Z,3.80
2022-10-18T07:26:30.768Z,4.20
2022-10-18T07:29:09.116Z,3.80
2022-10-18T07:31:38.824Z,3.80
2022-10-18T07:34:10.819Z,3.50
2022-10-18T07:36:39.162Z,3.30
2022-10-18T07:39:07.788Z,4.20
2022-10-18T07:41:36.262Z,3.60
2022-10-18T07:44:04.929Z,3.60
2022-10-18T07:46:32.877Z,4.30
2022-10-18T07:49:00.867Z,4.00
2022-10-18T07:51:30.954Z,3.70
2022-10-18T07:53:59.663Z,3.90
2022-10-18T07:56:27.949Z,3.70
2022-10-18T07:58:57.018Z,4.20
2022-10-18T08:01:26.018Z,4.30
2022-10-18T08:03:54.390Z,4.40
2022-10-18T08:06:23.594Z,3.60
2022-10-18T08:08:52.420Z,3.70
2022-10-18T08:11:25.027Z,3.70
2022-10-18T08:13:54.277Z,4.10
2022-10-18T08:16:28.233Z,3.80
2022-10-18T08:18:58.589Z,3.60
2022-10-18T08:21:26.984Z,3.70
2022-10-18T08:23:55.337Z,3.40
2022-10-18T08:26:23.628Z,3.50
2022-10-18T08:29:10.320Z,3.50
2022-10-18T08:31:39.708Z,3.30
2022-10-18T08:34:07.669Z,3.20
2022-10-18T08:36:35.565Z,3.30
2022-10-18T08:39:04.040Z,3.30
2022-10-18T08:41:37.702Z,3.10
2022-10-18T08:44:24.597Z,4.30
2022-10-18T08:47:02.919Z,3.60
2022-10-18T08:49:47.094Z,3.70
2022-10-18T08:52:57.875Z,3.40
2022-10-18T08:55:37.325Z,3.90
2022-10-18T08:58:22.741Z,3.40
2022-10-18T09:00:53.449Z,3.50
2022-10-18T09:03:43.013Z,4.60
2022-10-18T09:06:28.288Z,4.20
2022-10-18T09:09:11.414Z,4.30
2022-10-18T09:11:47.388Z,4.80
2022-10-18T09:14:45.711Z,5.00
2022-10-18T09:17:28.762Z,4.80
2022-10-18T09:20:25.841Z,4.70
2022-10-18T09:23:19.815Z,4.90
2022-10-18T09:25:55.208Z,6.00
2022-10-18T09:28:57.555Z,5.70
2022-10-18T09:31:51.523Z,5.70
2022-10-18T09:34:23.489Z,5.80
2022-10-18T09:36:52.704Z,5.60
2022-10-18T09:39:31.010Z,5.40
2022-10-18T09:42:26.938Z,6.00
2022-10-18T09:45:04.507Z,5.40
2022-10-18T09:47:44.711Z,4.80
2022-10-18T09:50:27.626Z,5.30
2022-10-18T09:53:26.431Z,4.90
2022-10-18T09:56:02.409Z,5.30
2022-10-18T09:58:46.462Z,4.70
2022-10-18T10:01:28.608Z,4.50
2022-10-18T10:03:57.081Z,3.70
2022-10-18T10:06:38.703Z,3.80
2022-10-18T10:11:51.520Z,4.10
2022-10-18T10:14:26.714Z,3.80
2022-10-18T10:17:02.579Z,3.50
2022-10-18T10:19:57.056Z,4.30
2022-10-18T10:22:42.351Z,5.00
2022-10-18T10:25:25.943Z,5.70
2022-10-18T10:27:54.172Z,5.20
2022-10-18T10:30:31.807Z,4.60
2022-10-18T10:32:59.844Z,4.20
2022-10-18T10:35:54.017Z,3.80
2022-10-18T10:38:28.576Z,4.40
2022-10-18T10:40:57.630Z,4.00
2022-10-18T10:43:38.757Z,4.10
2022-10-18T10:46:10.999Z,5.30
2022-10-18T10:48:48.439Z,5.10
2022-10-18T10:51:37.252Z,4.70
2022-10-18T10:54:17.130Z,2.70
2022-10-18T10:57:11.326Z,2.30
2022-10-18T10:59:52.429Z,2.50
2022-10-18T11:02:29.436Z,2.50
2022-10-18T11:05:29.564Z,2.10
2022-10-18T11:08:02.921Z,2.20
2022-10-18T11:10:38.359Z,1.70
2022-10-18T11:13:35.719Z,1.50
2022-10-18T11:16:17.479Z,2.10
2022-10-18T11:18:49.740Z,2.30
2022-10-18T11:21:27.490Z,2.40
2022-10-18T11:23:57.346Z,2.70
2022-10-18T11:26:48.819Z,2.40
2022-10-18T11:29:40.440Z,2.70
2022-10-18T11:32:19.003Z,1.50
2022-10-18T11:35:29.650Z,1.80
2022-10-18T11:38:42.354Z,2.40
2022-10-18T11:41:28.336Z,1.80
2022-10-18T11:44:04.464Z,2.40
2022-10-18T11:47:11.133Z,1.90
2022-10-18T11:49:57.481Z,1.70
2022-10-18T11:52:58.708Z,1.60
2022-10-18T11:55:46.559Z,1.70
2022-10-18T11:58:42.840Z,1.60
2022-10-18T12:01:37.231Z,2.00
2022-10-18T12:04:17.916Z,1.90
2022-10-18T12:06:50.106Z,2.10
2022-10-18T12:09:37.831Z,2.00
2022-10-18T12:12:53.908Z,2.20
2022-10-18T12:15:25.745Z,1.90
2022-10-18T12:17:58.847Z,2.10
2022-10-18T12:20:43.186Z,1.60
2022-10-18T12:23:29.180Z,1.90
2022-10-18T12:26:03.937Z,1.80
2022-10-18T12:29:19.782Z,1.60
2022-10-18T12:31:52.859Z,2.20
2022-10-18T12:34:23.855Z,2.10
2022-10-18T12:37:28.778Z,1.80
2022-10-18T12:40:16.814Z,2.20
2022-10-18T12:42:50.530Z,2.40
2022-10-18T12:45:33.290Z,2.20
2022-10-18T12:48:06.726Z,2.60
2022-10-18T12:50:43.837Z,2.70
2022-10-18T12:53:23.215Z,1.90
2022-10-18T12:55:53.695Z,2.30
2022-10-18T12:58:30.854Z,2.10
2022-10-18T13:01:02.641Z,2.00
2022-10-18T13:03:55.195Z,2.20
2022-10-18T13:06:24.225Z,1.80
2022-10-18T13:09:21.135Z,2.80
2022-10-18T13:11:50.181Z,3.00
2022-10-18T13:14:35.534Z,2.20
2022-10-18T13:17:26.339Z,2.60
2022-10-18T13:20:25.024Z,3.00
2022-10-18T13:26:21.651Z,2.20
2022-10-18T13:28:54.592Z,2.30
2022-10-18T13:31:34.587Z,2.50
2022-10-18T13:34:35.476Z,2.80
2022-10-18T13:37:18.842Z,2.90
2022-10-18T13:39:47.599Z,2.60
2022-10-18T13:42:15.324Z,2.30
2022-10-18T13:44:44.755Z,2.40
2022-10-18T13:47:31.967Z,1.70
2022-10-18T13:50:26.713Z,2.30
2022-10-18T13:53:24.068Z,1.50
2022-10-18T13:56:06.550Z,2.10
2022-10-18T13:59:06.079Z,2.80
2022-10-18T14:02:51.471Z,3.70
2022-10-18T14:05:29.231Z,2.30
2022-10-18T14:08:08.077Z,2.40
2022-10-18T14:11:10.186Z,2.10
2022-10-18T14:14:02.347Z,2.10
2022-10-18T14:16:43.482Z,2.00
2022-10-18T14:19:29.410Z,2.20
2022-10-18T14:22:22.233Z,1.90
2022-10-18T14:24:59.607Z,2.50
2022-10-18T14:27:33.096Z,2.90
2022-10-18T14:30:15.659Z,2.40
2022-10-18T14:32:50.692Z,3.00
2022-10-18T14:35:33.561Z,2.70
2022-10-18T14:38:02.882Z,2.40
2022-10-18T14:40:41.333Z,2.20
2022-10-18T14:43:09.089Z,2.00
2022-10-18T14:45:36.994Z,2.40
2022-10-18T14:48:15.083Z,2.00
2022-10-18T14:50:50.744Z,2.20
2022-10-18T14:53:25.188Z,2.20
2022-10-18T14:55:56.518Z,2.00
2022-10-18T14:58:24.611Z,2.00
2022-10-18T15:00:54.194Z,1.90
2022-10-18T15:03:22.713Z,1.90
2022-10-18T15:05:55.443Z,2.00
2022-10-18T15:08:26.831Z,1.90
2022-10-18T15:10:55.307Z,1.90
2022-10-18T15:13:25.167Z,1.70
2022-10-18T15:15:55.370Z,2.10
2022-10-18T15:18:26.937Z,2.20
2022-10-18T15:21:24.135Z,2.10
2022-10-18T15:23:52.459Z,2.40
2022-10-18T15:26:30.430Z,2.10
2022-10-18T15:29:01.534Z,1.90
2022-10-18T15:31:37.444Z,1.70
2022-10-18T15:34:18.601Z,2.40
2022-10-18T15:36:48.899Z,3.40
2022-10-18T15:39:32.017Z,2.10
2022-10-18T15:42:02.519Z,2.00
2022-10-18T15:44:34.641Z,2.30
2022-10-18T15:47:20.563Z,2.10
2022-10-18T15:49:54.578Z,2.20
2022-10-18T15:52:43.370Z,2.50
2022-10-18T15:55:29.753Z,2.30
2022-10-18T15:58:13.148Z,2.30
2022-10-18T16:00:44.158Z,2.40
2022-10-18T16:03:12.681Z,2.10
2022-10-18T16:05:41.298Z,2.60
2022-10-18T16:08:26.441Z,2.00
2022-10-18T16:10:54.472Z,2.30
2022-10-18T16:13:22.375Z,2.20
2022-10-18T16:15:50.604Z,2.20
2022-10-18T16:18:20.503Z,2.30
2022-10-18T16:20:48.844Z,2.50
2022-10-18T16:23:21.775Z,2.50
2022-10-18T16:25:50.685Z,2.30
2022-10-18T16:28:22.782Z,2.40
2022-10-18T16:31:01.821Z,2.80
2022-10-18T16:33:30.996Z,2.20
2022-10-18T16:35:59.539Z,2.10
2022-10-18T16:38:37.567Z,2.30
2022-10-18T16:41:08.425Z,2.40
2022-10-18T16:43:37.121Z,2.20
2022-10-18T16:46:05.684Z,2.00
2022-10-18T16:48:34.115Z,2.50
2022-10-18T16:51:02.488Z,2.60
2022-10-18T16:53:30.520Z,2.70
2022-10-18T16:56:02.265Z,2.80
2022-10-18T16:58:33.037Z,3.00
2022-10-18T17:01:02.914Z,2.40
2022-10-18T17:03:33.248Z,2.70
2022-10-18T17:06:01.214Z,2.80
2022-10-18T17:08:29.153Z,2.70
2022-10-18T17:10:59.383Z,2.60
2022-10-18T17:13:27.393Z,2.80
2022-10-18T17:15:55.291Z,2.50
2022-10-18T17:18:30.617Z,2.60
2022-10-18T17:21:02.596Z,2.60
2022-10-18T17:23:31.193Z,3.20
2022-10-18T17:26:07.173Z,2.80
2022-10-18T17:28:50.894Z,3.60
2022-10-18T17:31:18.812Z,3.20
2022-10-18T17:33:47.131Z,3.50
2022-10-18T17:36:17.556Z,3.30
2022-10-18T17:38:48.278Z,3.10
2022-10-18T17:41:16.334Z,3.40
2022-10-18T17:43:44.591Z,4.30
2022-10-18T17:46:14.244Z,3.90
2022-10-18T17:48:42.243Z,5.50
2022-10-18T17:51:14.427Z,5.70
2022-10-18T17:53:42.490Z,5.60
2022-10-18T17:56:12.399Z,6.10
2022-10-18T17:58:43.247Z,5.10
2022-10-18T18:01:23.282Z,5.60
2022-10-18T18:04:01.299Z,6.30
2022-10-18T18:06:35.602Z,5.60
2022-10-18T18:09:09.372Z,5.90
2022-10-18T18:11:43.424Z,4.20
2022-10-18T18:14:12.318Z,5.30
2022-10-18T18:16:44.475Z,5.70
2022-10-18T18:19:13.695Z,6.40
2022-10-18T18:21:42.942Z,7.30
2022-10-18T18:24:11.553Z,7.30
2022-10-18T18:26:41.931Z,5.70
2022-10-18T18:29:12.936Z,5.30
2022-10-18T18:31:43.745Z,5.00
2022-10-18T18:34:12.056Z,4.80
2022-10-18T18:36:41.321Z,6.50
2022-10-18T18:39:19.189Z,6.20
2022-10-18T18:41:50.471Z,6.00
2022-10-18T18:44:20.551Z,5.10
2022-10-18T18:46:49.018Z,6.20
2022-10-18T18:49:16.884Z,4.20
2022-10-18T18:51:44.813Z,4.50
2022-10-18T18:54:15.161Z,4.80
2022-10-18T18:56:43.351Z,6.00
2022-10-18T18:59:15.706Z,6.50
2022-10-18T19:01:44.574Z,5.80
2022-10-18T19:04:12.785Z,5.60
2022-10-18T19:06:44.368Z,5.70
2022-10-18T19:09:22.015Z,6.60
2022-10-18T19:11:53.322Z,6.30
2022-10-18T19:16:58.912Z,5.80
2022-10-18T19:19:30.986Z,6.10
2022-10-18T19:22:03.661Z,9.20
2022-10-18T19:24:32.125Z,9.80
2022-10-18T19:27:12.535Z,6.80
2022-10-18T19:29:41.802Z,7.60
2022-10-18T19:32:12.295Z,5.60
2022-10-18T19:34:40.491Z,5.00
2022-10-18T19:37:11.876Z,4.10
2022-10-18T19:39:39.876Z,3.60
2022-10-18T19:42:21.181Z,4.30
2022-10-18T19:44:54.173Z,4.50
2022-10-18T19:47:22.106Z,3.60
2022-10-18T19:49:50.358Z,3.90
2022-10-18T19:52:18.347Z,3.80
2022-10-18T19:54:49.486Z,3.70
2022-10-18T19:57:17.451Z,3.70
2022-10-18T19:59:46.054Z,3.90
2022-10-18T20:02:15.266Z,3.70
2022-10-18T20:04:43.334Z,3.50
2022-10-18T20:07:11.301Z,3.30
2022-10-18T20:09:39.904Z,3.00
2022-10-18T20:12:07.843Z,2.70
2022-10-18T20:14:35.732Z,3.10
2022-10-18T20:17:03.913Z,3.60
2022-10-18T20:19:31.892Z,3.70
2022-10-18T20:21:59.720Z,4.20
2022-10-18T20:24:27.634Z,3.30
2022-10-18T20:26:55.529Z,3.00
2022-10-18T20:29:25.390Z,3.80
2022-10-18T20:31:55.952Z,3.80
2022-10-18T20:34:26.101Z,4.50
2022-10-18T20:36:55.436Z,5.50
2022-10-18T20:39:23.541Z,4.70
2022-10-18T20:41:51.458Z,4.60
2022-10-18T20:44:22.707Z,3.10
2022-10-18T20:46:51.109Z,3.30
2022-10-18T20:49:19.429Z,2.70
2022-10-18T20:51:47.359Z,3.00
2022-10-18T20:54:15.313Z,2.70
2022-10-18T20:56:43.213Z,3.00
2022-10-18T20:59:11.641Z,2.80
2022-10-18T21:01:39.827Z,2.70
2022-10-18T21:04:10.619Z,2.60
2022-10-18T21:06:43.485Z,3.00
2022-10-18T21:09:19.331Z,3.40
2022-10-18T21:11:53.842Z,2.90
2022-10-18T21:14:24.828Z,2.90
2022-10-18T21:16:52.920Z,3.20
2022-10-18T21:19:27.290Z,3.00
2022-10-18T21:21:57.859Z,3.20
2022-10-18T21:24:27.680Z,3.10
2022-10-18T21:26:56.292Z,3.60
2022-10-18T21:29:27.268Z,3.20
2022-10-18T21:31:59.106Z,3.20
2022-10-18T21:34:27.014Z,3.40
2022-10-18T21:36:54.971Z,3.20
2022-10-18T21:41:57.216Z,2.90
2022-10-18T21:44:25.481Z,3.30
2022-10-18T21:46:55.026Z,2.60
2022-10-18T21:49:25.011Z,2.70
2022-10-18T21:51:52.956Z,2.80
2022-10-18T21:54:20.911Z,2.80
2022-10-18T21:56:48.799Z,3.70
2022-10-18T21:59:16.673Z,3.10
2022-10-18T22:01:45.716Z,3.00
2022-10-18T22:04:25.396Z,2.90
2022-10-18T22:06:53.292Z,2.60
2022-10-18T22:09:22.187Z,3.10
2022-10-18T22:11:53.252Z,2.30
2022-10-18T22:14:22.063Z,2.40
2022-10-18T22:16:50.103Z,2.70
2022-10-18T22:19:18.346Z,2.90
2022-10-18T22:21:46.417Z,3.30
2022-10-18T22:24:14.555Z,2.50
2022-10-18T22:26:44.303Z,2.50
2022-10-18T22:29:13.538Z,2.80
2022-10-18T22:31:49.311Z,2.90
2022-10-18T22:34:21.014Z,4.00
2022-10-18T22:36:49.296Z,2.80
2022-10-18T22:39:18.084Z,2.90
2022-10-18T22:41:46.908Z,2.70
2022-10-18T22:44:15.419Z,3.20
2022-10-18T22:46:43.618Z,2.80
2022-10-18T22:49:12.665Z,2.70
2022-10-18T22:51:40.637Z,2.80
2022-10-18T22:54:09.228Z,3.10
2022-10-18T22:56:37.105Z,3.00
2022-10-18T22:59:04.991Z,2.50
2022-10-18T23:01:32.875Z,3.30
2022-10-18T23:04:02.124Z,3.00
2022-10-18T23:06:33.988Z,2.80
2022-10-18T23:09:07.627Z,3.00
2022-10-18T23:11:36.604Z,3.20
2022-10-18T23:14:06.594Z,3.20
2022-10-18T23:16:35.284Z,2.70
2022-10-18T23:19:04.231Z,3.80
2022-10-18T23:21:34.159Z,2.70
2022-10-18T23:24:02.061Z,2.90
2022-10-18T23:26:29.923Z,3.40
2022-10-18T23:28:57.932Z,2.90
2022-10-18T23:31:30.386Z,2.90
2022-10-18T23:34:03.648Z,3.10
2022-10-18T23:36:33.894Z,3.30
2022-10-18T23:39:04.041Z,2.90
2022-10-18T23:41:32.255Z,3.40
2022-10-18T23:44:00.121Z,2.90
2022-10-18T23:46:28.691Z,2.70
2022-10-18T23:48:56.514Z,2.70
2022-10-18T23:51:24.333Z,3.20
2022-10-18T23:53:52.263Z,2.90
2022-10-18T23:56:20.087Z,2.70
2022-10-18T23:58:47.875Z,2.90
